Briefing drone pour Le pouzin

Rechercher une autre localisation

Conditions de vol :


Nous sommes le : Jeudi 06 octobre 2022
Il est 13:29 UTC (15:29 LT)

Lever de soleil : 05:18 UTC (07:18 LT)
Coucher de soleil : 17:39 UTC (19:39 LT)

Météo

L'essentiel des conditions de vol

VIGILANCE MÉTÉO FRANCE - Ardèche (07)
Pas de vigilances particulieres
METAR de LFLU
LFLU 061300Z AUTO 35015KT 9999 BKN036 23/14 Q1027

Date d'émission: 06/10/2022
Heure d'émission: 13:00 UTC
Vent: 350° pour 15 KT (28 km/h)
Visibilité horizontale: > 10 km
Plafond :
- Nuages morcelés à 3600ft (1097m)
Température: 23 °C
Point de rosée: 14 °C
Humidité: 57%
Pression (QNH): 1027 hPa
Prévision 24h pour Valence (15 km)
Vent : 209° pour 1 KT (5 km/h)
Temperature Maxi: 18 °C
Temperature Min: 18 °C
Humidité : 72%
Condition : Nuageux



Warning: count(): Parameter must be an array or an object that implements Countable in /homepages/6/d509196549/htdocs/droneoxygene/briefing.php on line 743
WEBCAM POUR LE POUZIN

Réglementation

Voler en sécurité

CARTES AERONAUTIQUE 1/500.000
CARTE AZBA (Reseau basse altitude)
CARTES VAC (LFLU)
SUP AIP




Chargement des AIP...
NOTAM (LE POUZIN + Terrain à proximité / FIR )




Chargement des NOTAMS...
CONTACT PREFECTURE 07


Avertissement : Les données mises à disposition sont indicatives. Oxygène Drone ne pourra être tenu responsable de dégâts causés aux biens et aux personnes.